sensor_id;sensor_type;location;lat;lon;timestamp;temperature;humidity
56123;DHT22;42426;46.104;19.656;2023-02-27T00:00:55;102.60;2227.20
56123;DHT22;42426;46.104;19.656;2023-02-27T00:03:21;102.60;2227.20
56123;DHT22;42426;46.104;19.656;2023-02-27T00:05:47;102.60;2227.20
56123;DHT22;42426;46.104;19.656;2023-02-27T00:08:13;102.60;2227.20
56123;DHT22;42426;46.104;19.656;2023-02-27T00:10:39;102.60;2227.20
56123;DHT22;42426;46.104;19.656;2023-02-27T00:22:53;103.00;2227.20
56123;DHT22;42426;46.104;19.656;2023-02-27T00:25:19;102.70;2227.20
56123;DHT22;42426;46.104;19.656;2023-02-27T00:27:44;102.70;2227.20
56123;DHT22;42426;46.104;19.656;2023-02-27T00:30:12;102.70;2227.20
56123;DHT22;42426;46.104;19.656;2023-02-27T00:32:39;102.70;2227.20
56123;DHT22;42426;46.104;19.656;2023-02-27T00:35:07;102.60;2227.20
56123;DHT22;42426;46.104;19.656;2023-02-27T00:37:35;102.60;2227.20
56123;DHT22;42426;46.104;19.656;2023-02-27T00:40:01;102.60;2227.20
56123;DHT22;42426;46.104;19.656;2023-02-27T00:42:29;102.60;2227.20
56123;DHT22;42426;46.104;19.656;2023-02-27T00:44:56;102.70;2227.20
56123;DHT22;42426;46.104;19.656;2023-02-27T00:47:22;102.60;2227.20
56123;DHT22;42426;46.104;19.656;2023-02-27T00:49:47;102.60;2227.20
56123;DHT22;42426;46.104;19.656;2023-02-27T00:52:13;102.60;2227.20
56123;DHT22;42426;46.104;19.656;2023-02-27T00:54:39;102.60;2227.20
56123;DHT22;42426;46.104;19.656;2023-02-27T00:57:04;102.60;2227.20
56123;DHT22;42426;46.104;19.656;2023-02-27T00:59:30;102.60;2227.20
56123;DHT22;42426;46.104;19.656;2023-02-27T01:01:56;102.50;2227.20
56123;DHT22;42426;46.104;19.656;2023-02-27T01:04:22;102.50;2227.20
56123;DHT22;42426;46.104;19.656;2023-02-27T01:06:48;102.50;2227.20
56123;DHT22;42426;46.104;19.656;2023-02-27T01:09:15;102.50;2227.20
56123;DHT22;42426;46.104;19.656;2023-02-27T01:11:40;102.50;2227.20
56123;DHT22;42426;46.104;19.656;2023-02-27T01:14:06;102.50;2227.20
56123;DHT22;42426;46.104;19.656;2023-02-27T01:16:32;102.50;2227.20
56123;DHT22;42426;46.104;19.656;2023-02-27T01:18:58;102.50;2227.20
56123;DHT22;42426;46.104;19.656;2023-02-27T01:21:23;102.50;2227.20
56123;DHT22;42426;46.104;19.656;2023-02-27T01:23:49;102.50;2227.20
56123;DHT22;42426;46.104;19.656;2023-02-27T01:26:15;102.50;2227.20
56123;DHT22;42426;46.104;19.656;2023-02-27T01:28:41;102.50;2227.20
56123;DHT22;42426;46.104;19.656;2023-02-27T01:31:06;102.40;2227.20
56123;DHT22;42426;46.104;19.656;2023-02-27T01:33:33;102.50;2227.20
56123;DHT22;42426;46.104;19.656;2023-02-27T01:35:59;102.50;2227.20
56123;DHT22;42426;46.104;19.656;2023-02-27T01:38:25;102.50;2227.20
56123;DHT22;42426;46.104;19.656;2023-02-27T01:40:51;102.50;2227.20
56123;DHT22;42426;46.104;19.656;2023-02-27T01:43:20;102.50;2227.20
56123;DHT22;42426;46.104;19.656;2023-02-27T01:45:47;102.50;2227.20
56123;DHT22;42426;46.104;19.656;2023-02-27T01:48:27;102.50;2227.20
56123;DHT22;42426;46.104;19.656;2023-02-27T01:51:01;102.40;2227.20
56123;DHT22;42426;46.104;19.656;2023-02-27T01:53:29;102.40;2227.20
56123;DHT22;42426;46.104;19.656;2023-02-27T01:55:59;102.40;2227.20
56123;DHT22;42426;46.104;19.656;2023-02-27T01:58:27;102.40;2227.20
56123;DHT22;42426;46.104;19.656;2023-02-27T02:00:54;102.40;2227.20
56123;DHT22;42426;46.104;19.656;2023-02-27T02:06:00;102.40;2227.20
56123;DHT22;42426;46.104;19.656;2023-02-27T02:08:29;102.40;2227.20
56123;DHT22;42426;46.104;19.656;2023-02-27T08:21:20;102.70;2048.00
56123;DHT22;42426;46.104;19.656;2023-02-27T08:23:46;102.70;2048.00
56123;DHT22;42426;46.104;19.656;2023-02-27T08:26:12;102.60;1971.20
56123;DHT22;42426;46.104;19.656;2023-02-27T08:28:38;102.60;1945.60
56123;DHT22;42426;46.104;19.656;2023-02-27T08:31:12;102.60;1971.20
56123;DHT22;42426;46.104;19.656;2023-02-27T08:33:38;102.60;1996.80
56123;DHT22;42426;46.104;19.656;2023-02-27T08:36:04;102.60;1920.00
56123;DHT22;42426;46.104;19.656;2023-02-27T08:38:29;102.70;1996.80
56123;DHT22;42426;46.104;19.656;2023-02-27T08:40:55;102.70;1996.80
56123;DHT22;42426;46.104;19.656;2023-02-27T08:43:22;102.80;1945.60
56123;DHT22;42426;46.104;19.656;2023-02-27T08:45:48;102.80;2048.00
56123;DHT22;42426;46.104;19.656;2023-02-27T08:48:14;102.80;1996.80
56123;DHT22;42426;46.104;19.656;2023-02-27T08:50:41;102.80;1971.20
56123;DHT22;42426;46.104;19.656;2023-02-27T08:53:08;102.80;1971.20
56123;DHT22;42426;46.104;19.656;2023-02-27T08:55:33;102.90;2048.00
56123;DHT22;42426;46.104;19.656;2023-02-27T08:57:59;102.90;1971.20
56123;DHT22;42426;46.104;19.656;2023-02-27T09:00:25;103.00;2073.60
56123;DHT22;42426;46.104;19.656;2023-02-27T09:02:52;103.10;2073.60
56123;DHT22;42426;46.104;19.656;2023-02-27T09:05:18;103.20;2073.60
56123;DHT22;42426;46.104;19.656;2023-02-27T09:07:44;103.30;2048.00
56123;DHT22;42426;46.104;19.656;2023-02-27T09:10:10;128.00;2073.60
56123;DHT22;42426;46.104;19.656;2023-02-27T09:12:37;128.00;2073.60
56123;DHT22;42426;46.104;19.656;2023-02-27T09:15:04;128.10;2048.00
56123;DHT22;42426;46.104;19.656;2023-02-27T09:17:31;128.20;2099.20
56123;DHT22;42426;46.104;19.656;2023-02-27T09:19:57;128.20;2073.60
56123;DHT22;42426;46.104;19.656;2023-02-27T09:22:23;128.30;2073.60
56123;DHT22;42426;46.104;19.656;2023-02-27T09:24:49;128.30;2048.00
56123;DHT22;42426;46.104;19.656;2023-02-27T09:27:15;128.40;2073.60
56123;DHT22;42426;46.104;19.656;2023-02-27T09:29:40;128.40;2022.40
56123;DHT22;42426;46.104;19.656;2023-02-27T09:32:06;128.40;2073.60
56123;DHT22;42426;46.104;19.656;2023-02-27T09:34:33;128.40;1971.20
56123;DHT22;42426;46.104;19.656;2023-02-27T09:37:00;128.40;2048.00
56123;DHT22;42426;46.104;19.656;2023-02-27T09:39:27;128.40;2073.60
56123;DHT22;42426;46.104;19.656;2023-02-27T09:42:00;128.50;2048.00
56123;DHT22;42426;46.104;19.656;2023-02-27T09:44:41;128.50;2022.40
56123;DHT22;42426;46.104;19.656;2023-02-27T09:47:22;128.50;2022.40
56123;DHT22;42426;46.104;19.656;2023-02-27T09:52:56;128.50;2022.40
56123;DHT22;42426;46.104;19.656;2023-02-27T09:55:22;128.50;2022.40
56123;DHT22;42426;46.104;19.656;2023-02-27T10:03:03;128.60;1945.60
56123;DHT22;42426;46.104;19.656;2023-02-27T10:08:08;128.60;1945.60
56123;DHT22;42426;46.104;19.656;2023-02-27T10:10:47;128.60;1945.60
56123;DHT22;42426;46.104;19.656;2023-02-27T10:16:05;128.60;1894.40
56123;DHT22;42426;46.104;19.656;2023-02-27T10:21:35;128.70;1996.80
56123;DHT22;42426;46.104;19.656;2023-02-27T10:26:31;128.80;1894.40
56123;DHT22;42426;46.104;19.656;2023-02-27T10:29:01;128.90;1920.00
56123;DHT22;42426;46.104;19.656;2023-02-27T10:31:32;153.60;1945.60
56123;DHT22;42426;46.104;19.656;2023-02-27T10:33:59;153.80;2022.40
56123;DHT22;42426;46.104;19.656;2023-02-27T10:36:25;153.90;2048.00
56123;DHT22;42426;46.104;19.656;2023-02-27T10:38:58;153.90;1945.60
56123;DHT22;42426;46.104;19.656;2023-02-27T10:41:25;154.10;1996.80
56123;DHT22;42426;46.104;19.656;2023-02-27T10:43:57;154.20;1971.20
56123;DHT22;42426;46.104;19.656;2023-02-27T10:46:30;154.20;1996.80
56123;DHT22;42426;46.104;19.656;2023-02-27T10:49:01;154.30;1971.20
56123;DHT22;42426;46.104;19.656;2023-02-27T10:51:34;154.30;1920.00
56123;DHT22;42426;46.104;19.656;2023-02-27T10:54:23;154.30;1945.60
56123;DHT22;42426;46.104;19.656;2023-02-27T10:56:56;154.30;1920.00
56123;DHT22;42426;46.104;19.656;2023-02-27T10:59:26;154.40;1894.40
56123;DHT22;42426;46.104;19.656;2023-02-27T11:02:41;154.40;1971.20
56123;DHT22;42426;46.104;19.656;2023-02-27T11:04:46;154.40;1868.80
56123;DHT22;42426;46.104;19.656;2023-02-27T11:07:13;154.40;1868.80
56123;DHT22;42426;46.104;19.656;2023-02-27T11:09:43;154.40;1894.40
56123;DHT22;42426;46.104;19.656;2023-02-27T11:12:27;154.40;1843.20
56123;DHT22;42426;46.104;19.656;2023-02-27T11:17:41;154.40;1868.80
56123;DHT22;42426;46.104;19.656;2023-02-27T11:20:37;154.30;1843.20
56123;DHT22;42426;46.104;19.656;2023-02-27T11:23:18;154.30;1817.60
56123;DHT22;42426;46.104;19.656;2023-02-27T11:25:45;154.40;1792.00
56123;DHT22;42426;46.104;19.656;2023-02-27T11:28:29;154.40;1894.40
56123;DHT22;42426;46.104;19.656;2023-02-27T11:31:00;154.50;1868.80
56123;DHT22;42426;46.104;19.656;2023-02-27T11:33:30;154.50;1817.60
56123;DHT22;42426;46.104;19.656;2023-02-27T11:35:58;154.50;1766.40
56123;DHT22;42426;46.104;19.656;2023-02-27T11:38:28;154.50;1792.00
56123;DHT22;42426;46.104;19.656;2023-02-27T11:40:55;179.20;1843.20
56123;DHT22;42426;46.104;19.656;2023-02-27T11:43:28;154.50;1868.80
56123;DHT22;42426;46.104;19.656;2023-02-27T11:46:06;179.20;1920.00
56123;DHT22;42426;46.104;19.656;2023-02-27T11:57:26;179.30;1715.20
56123;DHT22;42426;46.104;19.656;2023-02-27T12:00:15;179.30;1792.00
56123;DHT22;42426;46.104;19.656;2023-02-27T12:02:44;179.20;1792.00
56123;DHT22;42426;46.104;19.656;2023-02-27T12:07:45;179.30;1792.00
56123;DHT22;42426;46.104;19.656;2023-02-27T12:10:20;179.40;1817.60
56123;DHT22;42426;46.104;19.656;2023-02-27T12:13:02;179.50;1817.60
56123;DHT22;42426;46.104;19.656;2023-02-27T12:15:36;179.60;1868.80
56123;DHT22;42426;46.104;19.656;2023-02-27T12:18:31;179.50;1843.20
56123;DHT22;42426;46.104;19.656;2023-02-27T12:21:00;179.70;1868.80
56123;DHT22;42426;46.104;19.656;2023-02-27T12:23:38;179.80;1740.80
56123;DHT22;42426;46.104;19.656;2023-02-27T12:32:00;179.70;1817.60
56123;DHT22;42426;46.104;19.656;2023-02-27T12:34:57;179.70;1792.00
56123;DHT22;42426;46.104;19.656;2023-02-27T12:37:28;179.70;1817.60
56123;DHT22;42426;46.104;19.656;2023-02-27T12:39:57;179.70;1817.60
56123;DHT22;42426;46.104;19.656;2023-02-27T12:45:39;180.00;2252.80
56123;DHT22;42426;46.104;19.656;2023-02-27T12:48:20;179.90;1740.80
56123;DHT22;42426;46.104;19.656;2023-02-27T12:59:07;204.80;2022.40
56123;DHT22;42426;46.104;19.656;2023-02-27T13:01:49;180.10;1766.40
56123;DHT22;42426;46.104;19.656;2023-02-27T13:07:07;180.00;1664.00
56123;DHT22;42426;46.104;19.656;2023-02-27T13:12:24;180.10;1715.20
56123;DHT22;42426;46.104;19.656;2023-02-27T13:15:03;180.10;1766.40
56123;DHT22;42426;46.104;19.656;2023-02-27T13:17:34;180.10;1715.20
56123;DHT22;42426;46.104;19.656;2023-02-27T13:20:26;204.80;1740.80
56123;DHT22;42426;46.104;19.656;2023-02-27T13:25:58;204.80;1766.40
56123;DHT22;42426;46.104;19.656;2023-02-27T13:28:26;204.80;1792.00
56123;DHT22;42426;46.104;19.656;2023-02-27T13:31:06;204.80;1689.60
56123;DHT22;42426;46.104;19.656;2023-02-27T13:33:40;204.80;1766.40
56123;DHT22;42426;46.104;19.656;2023-02-27T13:39:00;204.80;1766.40
56123;DHT22;42426;46.104;19.656;2023-02-27T13:54:15;180.10;1817.60
56123;DHT22;42426;46.104;19.656;2023-02-27T13:59:41;180.10;1766.40
56123;DHT22;42426;46.104;19.656;2023-02-27T14:04:38;180.10;1766.40
56123;DHT22;42426;46.104;19.656;2023-02-27T14:07:14;180.10;1766.40
56123;DHT22;42426;46.104;19.656;2023-02-27T14:09:44;180.10;1792.00
56123;DHT22;42426;46.104;19.656;2023-02-27T14:12:34;180.10;1766.40
56123;DHT22;42426;46.104;19.656;2023-02-27T14:18:02;180.00;1740.80
56123;DHT22;42426;46.104;19.656;2023-02-27T14:25:40;180.00;1817.60
56123;DHT22;42426;46.104;19.656;2023-02-27T14:28:36;180.00;1792.00
56123;DHT22;42426;46.104;19.656;2023-02-27T14:31:25;180.00;1792.00
56123;DHT22;42426;46.104;19.656;2023-02-27T14:33:54;179.90;1792.00
56123;DHT22;42426;46.104;19.656;2023-02-27T14:36:28;179.90;1792.00
56123;DHT22;42426;46.104;19.656;2023-02-27T14:38:57;179.90;1792.00
56123;DHT22;42426;46.104;19.656;2023-02-27T14:43:57;179.90;1817.60
56123;DHT22;42426;46.104;19.656;2023-02-27T14:46:37;179.80;1792.00
56123;DHT22;42426;46.104;19.656;2023-02-27T14:49:19;179.80;1766.40
56123;DHT22;42426;46.104;19.656;2023-02-27T14:51:46;179.70;1817.60
56123;DHT22;42426;46.104;19.656;2023-02-27T14:54:24;179.70;1817.60
56123;DHT22;42426;46.104;19.656;2023-02-27T14:59:30;179.70;1817.60
56123;DHT22;42426;46.104;19.656;2023-02-27T15:01:59;179.80;1817.60
56123;DHT22;42426;46.104;19.656;2023-02-27T15:04:32;179.80;1817.60
56123;DHT22;42426;46.104;19.656;2023-02-27T15:06:58;179.70;1792.00
56123;DHT22;42426;46.104;19.656;2023-02-27T15:09:38;179.70;1792.00
56123;DHT22;42426;46.104;19.656;2023-02-27T15:12:08;179.70;1817.60
56123;DHT22;42426;46.104;19.656;2023-02-27T15:14:36;179.70;1792.00
56123;DHT22;42426;46.104;19.656;2023-02-27T15:17:12;179.70;1792.00
56123;DHT22;42426;46.104;19.656;2023-02-27T15:19:49;179.70;1740.80
56123;DHT22;42426;46.104;19.656;2023-02-27T15:22:35;179.70;1792.00
56123;DHT22;42426;46.104;19.656;2023-02-27T15:25:01;179.60;1817.60
56123;DHT22;42426;46.104;19.656;2023-02-27T15:27:29;179.60;1792.00
56123;DHT22;42426;46.104;19.656;2023-02-27T15:29:57;179.60;1817.60
56123;DHT22;42426;46.104;19.656;2023-02-27T15:32:29;179.60;1843.20
56123;DHT22;42426;46.104;19.656;2023-02-27T15:35:01;179.60;1766.40
56123;DHT22;42426;46.104;19.656;2023-02-27T15:37:30;179.50;1817.60
56123;DHT22;42426;46.104;19.656;2023-02-27T15:39:57;179.50;1792.00
56123;DHT22;42426;46.104;19.656;2023-02-27T15:42:29;179.50;1740.80
56123;DHT22;42426;46.104;19.656;2023-02-27T15:44:55;179.40;1792.00
56123;DHT22;42426;46.104;19.656;2023-02-27T15:47:25;179.40;1843.20
56123;DHT22;42426;46.104;19.656;2023-02-27T15:49:55;179.40;1817.60
56123;DHT22;42426;46.104;19.656;2023-02-27T15:52:26;179.30;1843.20
56123;DHT22;42426;46.104;19.656;2023-02-27T15:55:04;179.30;1792.00
56123;DHT22;42426;46.104;19.656;2023-02-27T15:57:31;179.30;1868.80
56123;DHT22;42426;46.104;19.656;2023-02-27T15:59:59;179.20;1843.20
56123;DHT22;42426;46.104;19.656;2023-02-27T16:02:34;179.20;1817.60
56123;DHT22;42426;46.104;19.656;2023-02-27T16:05:01;154.50;1868.80
56123;DHT22;42426;46.104;19.656;2023-02-27T16:07:27;154.40;1894.40
56123;DHT22;42426;46.104;19.656;2023-02-27T16:10:04;154.40;1894.40
56123;DHT22;42426;46.104;19.656;2023-02-27T16:12:34;154.40;1843.20
56123;DHT22;42426;46.104;19.656;2023-02-27T16:15:38;154.30;1894.40
56123;DHT22;42426;46.104;19.656;2023-02-27T16:20:44;154.20;1894.40
56123;DHT22;42426;46.104;19.656;2023-02-27T16:23:20;154.10;1894.40
56123;DHT22;42426;46.104;19.656;2023-02-27T16:28:53;154.00;1894.40
56123;DHT22;42426;46.104;19.656;2023-02-27T16:31:26;153.90;1920.00
56123;DHT22;42426;46.104;19.656;2023-02-27T16:33:55;153.90;1920.00
56123;DHT22;42426;46.104;19.656;2023-02-27T16:36:28;153.80;1920.00
56123;DHT22;42426;46.104;19.656;2023-02-27T16:38:54;153.70;1945.60
56123;DHT22;42426;46.104;19.656;2023-02-27T16:41:21;153.70;1971.20
56123;DHT22;42426;46.104;19.656;2023-02-27T16:43:48;153.70;1971.20
56123;DHT22;42426;46.104;19.656;2023-02-27T16:46:16;153.70;1971.20
56123;DHT22;42426;46.104;19.656;2023-02-27T16:48:50;153.70;1971.20
56123;DHT22;42426;46.104;19.656;2023-02-27T16:51:19;153.60;1996.80
56123;DHT22;42426;46.104;19.656;2023-02-27T16:53:46;153.60;2022.40
56123;DHT22;42426;46.104;19.656;2023-02-27T16:56:13;153.60;2022.40
56123;DHT22;42426;46.104;19.656;2023-02-27T16:58:39;128.90;1996.80
56123;DHT22;42426;46.104;19.656;2023-02-27T17:01:05;128.90;1996.80
56123;DHT22;42426;46.104;19.656;2023-02-27T17:03:30;128.80;2048.00
56123;DHT22;42426;46.104;19.656;2023-02-27T17:05:58;128.80;1996.80
56123;DHT22;42426;46.104;19.656;2023-02-27T17:08:24;128.70;2022.40
56123;DHT22;42426;46.104;19.656;2023-02-27T17:10:51;128.60;2048.00
56123;DHT22;42426;46.104;19.656;2023-02-27T17:13:17;128.60;2073.60
56123;DHT22;42426;46.104;19.656;2023-02-27T17:15:43;128.60;2099.20
56123;DHT22;42426;46.104;19.656;2023-02-27T17:18:09;128.60;2048.00
56123;DHT22;42426;46.104;19.656;2023-02-27T17:20:34;128.60;2073.60
56123;DHT22;42426;46.104;19.656;2023-02-27T17:23:00;128.60;2073.60
56123;DHT22;42426;46.104;19.656;2023-02-27T17:25:26;128.60;1996.80
56123;DHT22;42426;46.104;19.656;2023-02-27T17:27:52;128.60;2073.60
56123;DHT22;42426;46.104;19.656;2023-02-27T17:30:18;128.50;2022.40
56123;DHT22;42426;46.104;19.656;2023-02-27T17:32:45;128.50;2073.60
56123;DHT22;42426;46.104;19.656;2023-02-27T17:35:11;128.40;2099.20
56123;DHT22;42426;46.104;19.656;2023-02-27T17:37:37;128.40;2073.60
56123;DHT22;42426;46.104;19.656;2023-02-27T17:40:04;128.50;2099.20
56123;DHT22;42426;46.104;19.656;2023-02-27T17:42:30;128.40;2099.20
56123;DHT22;42426;46.104;19.656;2023-02-27T17:44:56;128.40;2048.00
56123;DHT22;42426;46.104;19.656;2023-02-27T17:47:22;128.40;2099.20
56123;DHT22;42426;46.104;19.656;2023-02-27T17:49:48;128.40;2099.20
56123;DHT22;42426;46.104;19.656;2023-02-27T17:52:14;128.40;2073.60
56123;DHT22;42426;46.104;19.656;2023-02-27T17:54:40;128.40;2099.20
56123;DHT22;42426;46.104;19.656;2023-02-27T17:57:05;128.40;2073.60
56123;DHT22;42426;46.104;19.656;2023-02-27T17:59:32;128.20;2048.00
56123;DHT22;42426;46.104;19.656;2023-02-27T18:01:58;128.40;2073.60
56123;DHT22;42426;46.104;19.656;2023-02-27T18:04:24;128.30;2048.00
56123;DHT22;42426;46.104;19.656;2023-02-27T18:06:50;153.70;2073.60
56123;DHT22;42426;46.104;19.656;2023-02-27T18:09:16;128.30;2073.60
56123;DHT22;42426;46.104;19.656;2023-02-27T18:11:42;128.30;2073.60
56123;DHT22;42426;46.104;19.656;2023-02-27T18:14:08;128.30;2073.60
56123;DHT22;42426;46.104;19.656;2023-02-27T18:16:33;128.30;2099.20
56123;DHT22;42426;46.104;19.656;2023-02-27T18:19:03;128.30;2099.20
56123;DHT22;42426;46.104;19.656;2023-02-27T18:21:30;128.30;2099.20
56123;DHT22;42426;46.104;19.656;2023-02-27T18:23:56;128.30;2124.80
56123;DHT22;42426;46.104;19.656;2023-02-27T18:26:24;128.20;2099.20
56123;DHT22;42426;46.104;19.656;2023-02-27T18:28:50;128.20;2124.80
56123;DHT22;42426;46.104;19.656;2023-02-27T18:31:24;128.20;2124.80
56123;DHT22;42426;46.104;19.656;2023-02-27T18:33:50;128.10;2124.80
56123;DHT22;42426;46.104;19.656;2023-02-27T18:36:16;128.10;2124.80
56123;DHT22;42426;46.104;19.656;2023-02-27T18:38:43;128.00;2124.80
56123;DHT22;42426;46.104;19.656;2023-02-27T18:41:10;128.00;2124.80
56123;DHT22;42426;46.104;19.656;2023-02-27T18:43:38;128.00;2124.80
56123;DHT22;42426;46.104;19.656;2023-02-27T18:46:04;128.00;2099.20
56123;DHT22;42426;46.104;19.656;2023-02-27T18:48:31;128.00;2124.80
56123;DHT22;42426;46.104;19.656;2023-02-27T18:51:01;128.20;2099.20
56123;DHT22;42426;46.104;19.656;2023-02-27T18:53:38;128.00;2124.80
56123;DHT22;42426;46.104;19.656;2023-02-27T18:56:05;128.00;2099.20
56123;DHT22;42426;46.104;19.656;2023-02-27T18:58:32;128.00;2124.80
56123;DHT22;42426;46.104;19.656;2023-02-27T19:00:58;128.00;2124.80
56123;DHT22;42426;46.104;19.656;2023-02-27T19:03:24;128.00;2099.20
56123;DHT22;42426;46.104;19.656;2023-02-27T19:05:50;128.00;2124.80
56123;DHT22;42426;46.104;19.656;2023-02-27T19:08:16;128.00;2099.20
56123;DHT22;42426;46.104;19.656;2023-02-27T19:10:42;128.00;2124.80
56123;DHT22;42426;46.104;19.656;2023-02-27T19:13:08;128.00;2124.80
56123;DHT22;42426;46.104;19.656;2023-02-27T19:15:37;128.00;2124.80
56123;DHT22;42426;46.104;19.656;2023-02-27T19:18:03;103.30;2073.60
56123;DHT22;42426;46.104;19.656;2023-02-27T19:20:29;128.00;2124.80
56123;DHT22;42426;46.104;19.656;2023-02-27T19:22:55;128.00;2099.20
56123;DHT22;42426;46.104;19.656;2023-02-27T19:25:20;128.00;2124.80
56123;DHT22;42426;46.104;19.656;2023-02-27T19:27:55;128.00;2124.80
56123;DHT22;42426;46.104;19.656;2023-02-27T19:30:22;128.00;2124.80
56123;DHT22;42426;46.104;19.656;2023-02-27T19:32:50;128.00;2124.80
56123;DHT22;42426;46.104;19.656;2023-02-27T19:35:16;128.00;2099.20
56123;DHT22;42426;46.104;19.656;2023-02-27T19:37:41;128.00;2099.20
56123;DHT22;42426;46.104;19.656;2023-02-27T19:40:09;128.00;2099.20
56123;DHT22;42426;46.104;19.656;2023-02-27T19:42:35;128.00;2099.20
56123;DHT22;42426;46.104;19.656;2023-02-27T19:45:01;128.00;2124.80
56123;DHT22;42426;46.104;19.656;2023-02-27T19:47:26;128.00;2124.80
56123;DHT22;42426;46.104;19.656;2023-02-27T19:49:52;128.00;2099.20
56123;DHT22;42426;46.104;19.656;2023-02-27T19:52:18;128.00;2073.60
56123;DHT22;42426;46.104;19.656;2023-02-27T19:54:43;128.00;2124.80
56123;DHT22;42426;46.104;19.656;2023-02-27T19:57:09;128.00;2099.20
56123;DHT22;42426;46.104;19.656;2023-02-27T19:59:36;128.00;2124.80
56123;DHT22;42426;46.104;19.656;2023-02-27T20:02:03;128.00;2099.20
56123;DHT22;42426;46.104;19.656;2023-02-27T20:04:29;128.00;2099.20
56123;DHT22;42426;46.104;19.656;2023-02-27T20:06:54;128.00;2124.80
56123;DHT22;42426;46.104;19.656;2023-02-27T20:09:21;128.00;2099.20
56123;DHT22;42426;46.104;19.656;2023-02-27T20:11:51;128.00;2099.20
56123;DHT22;42426;46.104;19.656;2023-02-27T20:14:18;128.00;2099.20
56123;DHT22;42426;46.104;19.656;2023-02-27T20:16:44;128.00;2099.20
56123;DHT22;42426;46.104;19.656;2023-02-27T20:19:15;128.00;2099.20
56123;DHT22;42426;46.104;19.656;2023-02-27T20:21:41;128.00;2073.60
56123;DHT22;42426;46.104;19.656;2023-02-27T20:24:07;103.30;2073.60
56123;DHT22;42426;46.104;19.656;2023-02-27T20:26:39;103.30;2073.60
56123;DHT22;42426;46.104;19.656;2023-02-27T20:29:12;128.00;2124.80
56123;DHT22;42426;46.104;19.656;2023-02-27T20:31:40;103.30;2099.20
56123;DHT22;42426;46.104;19.656;2023-02-27T20:34:07;103.30;2099.20
56123;DHT22;42426;46.104;19.656;2023-02-27T20:36:38;103.30;2073.60
56123;DHT22;42426;46.104;19.656;2023-02-27T20:39:05;103.30;2073.60
56123;DHT22;42426;46.104;19.656;2023-02-27T20:41:31;103.20;2048.00
56123;DHT22;42426;46.104;19.656;2023-02-27T20:43:59;103.20;2099.20
56123;DHT22;42426;46.104;19.656;2023-02-27T20:46:27;103.20;2099.20
56123;DHT22;42426;46.104;19.656;2023-02-27T20:49:01;103.20;2073.60
56123;DHT22;42426;46.104;19.656;2023-02-27T20:51:33;103.20;2073.60
56123;DHT22;42426;46.104;19.656;2023-02-27T20:54:04;103.20;2099.20
56123;DHT22;42426;46.104;19.656;2023-02-27T20:56:38;103.20;2099.20
56123;DHT22;42426;46.104;19.656;2023-02-27T20:59:08;103.20;2099.20
56123;DHT22;42426;46.104;19.656;2023-02-27T21:01:34;103.20;2099.20
56123;DHT22;42426;46.104;19.656;2023-02-27T21:04:00;103.20;2099.20
56123;DHT22;42426;46.104;19.656;2023-02-27T21:06:27;103.20;2073.60
56123;DHT22;42426;46.104;19.656;2023-02-27T21:08:54;103.20;2022.40
56123;DHT22;42426;46.104;19.656;2023-02-27T21:11:22;103.20;2073.60
56123;DHT22;42426;46.104;19.656;2023-02-27T21:14:11;103.20;2099.20
56123;DHT22;42426;46.104;19.656;2023-02-27T21:16:38;103.10;2073.60
56123;DHT22;42426;46.104;19.656;2023-02-27T21:19:04;103.00;2099.20
56123;DHT22;42426;46.104;19.656;2023-02-27T21:21:32;103.10;2099.20
56123;DHT22;42426;46.104;19.656;2023-02-27T21:23:59;102.90;2048.00
56123;DHT22;42426;46.104;19.656;2023-02-27T21:26:36;102.90;2048.00
56123;DHT22;42426;46.104;19.656;2023-02-27T21:29:10;103.00;2099.20
56123;DHT22;42426;46.104;19.656;2023-02-27T21:31:37;103.00;2124.80
56123;DHT22;42426;46.104;19.656;2023-02-27T21:34:05;103.00;2099.20
56123;DHT22;42426;46.104;19.656;2023-02-27T21:36:34;102.90;2099.20
56123;DHT22;42426;46.104;19.656;2023-02-27T21:39:04;102.90;2099.20
56123;DHT22;42426;46.104;19.656;2023-02-27T21:41:31;103.00;2099.20
56123;DHT22;42426;46.104;19.656;2023-02-27T21:44:02;103.00;2099.20
56123;DHT22;42426;46.104;19.656;2023-02-27T21:46:28;102.90;2099.20
56123;DHT22;42426;46.104;19.656;2023-02-27T21:48:54;102.80;2048.00
56123;DHT22;42426;46.104;19.656;2023-02-27T21:51:20;102.80;2099.20
56123;DHT22;42426;46.104;19.656;2023-02-27T21:53:47;102.80;2073.60
56123;DHT22;42426;46.104;19.656;2023-02-27T21:56:14;102.80;2099.20
56123;DHT22;42426;46.104;19.656;2023-02-27T21:58:40;102.90;2124.80
56123;DHT22;42426;46.104;19.656;2023-02-27T22:01:18;102.90;2099.20
56123;DHT22;42426;46.104;19.656;2023-02-27T22:03:45;102.80;2073.60
56123;DHT22;42426;46.104;19.656;2023-02-27T22:06:12;102.90;2073.60
56123;DHT22;42426;46.104;19.656;2023-02-27T22:08:38;102.90;2099.20
56123;DHT22;42426;46.104;19.656;2023-02-27T22:11:05;102.90;2099.20
56123;DHT22;42426;46.104;19.656;2023-02-27T22:13:31;102.90;2099.20
56123;DHT22;42426;46.104;19.656;2023-02-27T22:16:02;102.90;2124.80
56123;DHT22;42426;46.104;19.656;2023-02-27T22:18:28;102.90;2099.20
56123;DHT22;42426;46.104;19.656;2023-02-27T22:20:54;102.90;2073.60
56123;DHT22;42426;46.104;19.656;2023-02-27T22:23:20;102.90;2124.80
56123;DHT22;42426;46.104;19.656;2023-02-27T22:25:45;102.90;2099.20
56123;DHT22;42426;46.104;19.656;2023-02-27T22:28:11;103.00;2124.80
56123;DHT22;42426;46.104;19.656;2023-02-27T22:30:37;103.00;2124.80
56123;DHT22;42426;46.104;19.656;2023-02-27T22:33:02;103.00;2099.20
56123;DHT22;42426;46.104;19.656;2023-02-27T22:35:30;103.00;2124.80
56123;DHT22;42426;46.104;19.656;2023-02-27T22:37:56;103.00;2124.80
56123;DHT22;42426;46.104;19.656;2023-02-27T22:40:22;103.00;2099.20
56123;DHT22;42426;46.104;19.656;2023-02-27T22:42:47;102.90;2099.20
56123;DHT22;42426;46.104;19.656;2023-02-27T22:45:13;103.00;2099.20
56123;DHT22;42426;46.104;19.656;2023-02-27T22:47:39;102.90;2099.20
56123;DHT22;42426;46.104;19.656;2023-02-27T22:50:05;103.00;2124.80